Time;durP1;ratioP1;P1;durP2;ratioP2;P2;SDS_P1;SDS_P2;PMS_P1;PMS_P2;Temp;Humidity;BMP_temperature;BMP_pressure;BME280_temperature;BME280_humidity;BME280_pressure;Samples;Min_cycle;Max_cycle;Signal;HPM_P1;HPM_P2
2022/09/11 00:02:20;;;;;;;9.75;7.53;;;;;;;23.84;100.00;98979.47;5110624;28;20254;-57
2022/09/11 00:04:47;;;;;;;8.30;7.50;;;;;;;23.84;100.00;98978.63;5109966;28;20230;-58
2022/09/11 00:07:14;;;;;;;7.90;7.32;;;;;;;23.78;100.00;98980.03;5110347;28;20202;-57
2022/09/11 00:09:41;;;;;;;8.82;7.05;;;;;;;23.76;100.00;98976.69;5109881;28;20205;-54
2022/09/11 00:12:08;;;;;;;7.93;7.22;;;;;;;23.77;100.00;98982.84;5109759;28;20272;-54
2022/09/11 00:14:37;;;;;;;10.20;7.10;;;;;;;23.69;100.00;98985.34;5109794;28;20233;-54
2022/09/11 00:17:04;;;;;;;7.25;6.40;;;;;;;23.62;100.00;98989.50;5108910;28;20190;-54
2022/09/11 00:19:31;;;;;;;7.80;7.03;;;;;;;23.62;100.00;98984.22;5109791;28;20198;-54
2022/09/11 00:21:57;;;;;;;7.38;6.78;;;;;;;23.60;100.00;98987.00;5109731;28;20281;-56
2022/09/11 00:24:24;;;;;;;11.10;7.65;;;;;;;23.60;100.00;98991.47;5110441;28;20236;-57
2022/09/11 00:26:51;;;;;;;11.10;6.68;;;;;;;23.55;100.00;98980.47;5109627;28;20200;-55
2022/09/11 00:29:18;;;;;;;10.40;6.97;;;;;;;23.41;100.00;98977.22;5109918;28;20293;-54
2022/09/11 00:31:48;;;;;;;10.45;7.10;;;;;;;23.43;100.00;98985.88;5110243;28;20213;-55
2022/09/11 00:34:14;;;;;;;7.45;6.75;;;;;;;23.20;100.00;98957.97;5113835;28;20230;-54
2022/09/11 00:36:42;;;;;;;7.30;6.38;;;;;;;23.37;100.00;98970.50;5114143;28;20676;-55
2022/09/11 00:39:10;;;;;;;6.88;5.75;;;;;;;23.36;100.00;98982.09;5114017;27;20277;-55
2022/09/11 00:41:41;;;;;;;7.40;6.47;;;;;;;23.29;100.00;98974.81;5113725;28;20259;-57
2022/09/11 00:44:24;;;;;;;7.47;6.78;;;;;;;23.29;100.00;98980.13;5113856;28;20224;-57
2022/09/11 00:46:55;;;;;;;6.78;6.10;;;;;;;23.22;100.00;98981.66;5113580;28;20231;-57
2022/09/11 00:49:27;;;;;;;11.45;7.63;;;;;;;23.21;100.00;98975.53;5113878;28;20584;-56
2022/09/11 00:51:58;;;;;;;10.02;7.15;;;;;;;23.12;100.00;98971.06;5113612;28;20199;-57
2022/09/11 00:54:29;;;;;;;7.13;6.55;;;;;;;23.09;100.00;98973.97;5113575;28;20225;-57
2022/09/11 00:57:00;;;;;;;7.38;6.78;;;;;;;23.06;100.00;98972.44;5113544;28;20197;-58
2022/09/11 00:59:31;;;;;;;7.15;6.55;;;;;;;23.03;100.00;98964.75;5114034;28;20624;-57
2022/09/11 01:01:59;;;;;;;7.88;6.68;;;;;;;22.97;100.00;98961.81;5113727;28;20667;-57
2022/09/11 01:04:28;;;;;;;9.02;6.60;;;;;;;22.93;100.00;98966.53;5113827;28;20190;-57
2022/09/11 01:06:57;;;;;;;7.50;6.63;;;;;;;22.93;100.00;98966.53;5113279;27;20210;-58
2022/09/11 01:09:25;;;;;;;10.02;6.88;;;;;;;22.97;100.00;98962.66;5113422;28;20202;-57
2022/09/11 01:12:04;;;;;;;6.65;6.05;;;;;;;22.97;100.00;98962.66;5113535;28;20584;-58
2022/09/11 01:14:44;;;;;;;7.50;6.80;;;;;;;22.97;100.00;98954.72;5113213;28;20208;-55
2022/09/11 01:17:21;;;;;;;10.63;6.28;;;;;;;23.02;100.00;98949.88;5113169;28;20206;-58
2022/09/11 01:20:17;;;;;;;7.43;6.82;;;;;;;22.96;100.00;98952.19;5112938;28;20326;-57
2022/09/11 01:22:57;;;;;;;8.38;6.60;;;;;;;22.86;100.00;98924.88;5112985;27;20559;-57
2022/09/11 01:25:31;;;;;;;7.72;6.78;;;;;;;22.93;100.00;98941.88;5113044;28;20226;-57
2022/09/11 01:28:03;;;;;;;6.70;6.05;;;;;;;22.87;100.00;98939.78;5112937;28;20202;-57
2022/09/11 01:30:37;;;;;;;9.60;6.95;;;;;;;22.89;100.00;98936.03;5112901;28;20199;-56
2022/09/11 01:33:16;;;;;;;6.90;6.13;;;;;;;22.83;100.00;98938.38;5112715;28;20228;-57
2022/09/11 01:35:53;;;;;;;7.55;6.78;;;;;;;22.75;100.00;98931.09;5112867;28;20647;-57
2022/09/11 01:38:27;;;;;;;7.07;6.50;;;;;;;22.79;100.00;98936.03;5112806;28;20580;-53
2022/09/11 01:40:59;;;;;;;7.95;7.05;;;;;;;22.79;100.00;98935.19;5113009;28;20569;-54
2022/09/11 01:43:31;;;;;;;6.82;6.32;;;;;;;22.86;100.00;98938.13;5112421;28;20202;-54
2022/09/11 01:46:01;;;;;;;10.70;7.13;;;;;;;22.76;100.00;98938.94;5112368;28;20222;-54
2022/09/11 01:48:37;;;;;;;7.40;6.70;;;;;;;22.76;100.00;98936.28;5112564;28;20195;-54
2022/09/11 01:51:07;;;;;;;9.35;7.35;;;;;;;22.75;100.00;98942.53;5112506;28;20584;-54
2022/09/11 01:53:38;;;;;;;8.15;7.07;;;;;;;22.75;100.00;98947.84;5112399;28;20194;-53
2022/09/11 01:56:09;;;;;;;8.30;7.38;;;;;;;22.75;100.00;98944.31;5112465;28;20190;-54
2022/09/11 01:58:39;;;;;;;7.60;6.80;;;;;;;22.69;100.00;98950.13;5112482;28;20206;-54
2022/09/11 02:01:12;;;;;;;7.45;6.80;;;;;;;22.65;100.00;98943.47;5112235;28;20191;-54
2022/09/11 02:03:42;;;;;;;8.50;7.20;;;;;;;22.61;100.00;98940.22;5112058;28;20190;-56
2022/09/11 02:06:12;;;;;;;14.38;6.85;;;;;;;22.58;100.00;98944.94;5112370;28;20222;-55
2022/09/11 02:08:45;;;;;;;8.80;7.50;;;;;;;22.52;100.00;98945.50;5112579;28;20202;-56
2022/09/11 02:11:15;;;;;;;9.98;7.03;;;;;;;22.53;100.00;98950.66;5112271;28;20191;-56
2022/09/11 02:13:52;;;;;;;7.75;7.15;;;;;;;22.49;100.00;98943.09;5112212;28;20600;-56
2022/09/11 02:16:24;;;;;;;9.27;7.47;;;;;;;22.49;100.00;98946.59;5112013;28;20284;-56
2022/09/11 02:19:00;;;;;;;8.88;7.75;;;;;;;22.44;100.00;98946.16;5112068;28;20319;-55
2022/09/11 02:21:27;;;;;;;11.13;7.40;;;;;;;22.31;100.00;98949.03;5111981;28;20190;-56
2022/09/11 02:23:55;;;;;;;8.20;7.40;;;;;;;22.28;100.00;98948.44;5111838;28;20216;-56
2022/09/11 02:26:24;;;;;;;10.85;8.15;;;;;;;22.24;100.00;98944.38;5111851;28;20581;-56
2022/09/11 02:28:53;;;;;;;8.32;7.40;;;;;;;22.15;100.00;98951.28;5111844;28;20195;-56
2022/09/11 02:31:22;;;;;;;8.65;7.70;;;;;;;22.14;100.00;98952.25;5111979;28;20674;-56
2022/09/11 02:33:50;;;;;;;7.95;7.25;;;;;;;22.14;100.00;98956.72;5111596;28;20244;-58
2022/09/11 02:36:48;;;;;;;8.38;7.60;;;;;;;22.13;100.00;98950.59;5111750;28;20281;-53
2022/09/11 02:39:44;;;;;;;8.52;7.40;;;;;;;22.12;100.00;98959.50;5111569;28;20202;-54
2022/09/11 02:42:26;;;;;;;9.60;7.20;;;;;;;22.08;100.00;98969.50;5109332;28;20252;-53
2022/09/11 02:45:04;;;;;;;10.52;7.65;;;;;;;21.94;100.00;98958.38;5111315;28;20206;-54
2022/09/11 02:47:42;;;;;;;15.32;7.82;;;;;;;21.87;100.00;98957.22;5111366;28;20194;-54
2022/09/11 02:50:21;;;;;;;16.08;7.63;;;;;;;21.82;100.00;98962.88;5111729;27;20672;-54
2022/09/11 02:52:56;;;;;;;10.73;8.30;;;;;;;21.69;100.00;98955.13;5111170;28;20293;-54
2022/09/11 02:55:31;;;;;;;8.82;8.05;;;;;;;21.67;100.00;98954.41;5110938;28;20314;-58
2022/09/11 02:58:04;;;;;;;8.50;7.63;;;;;;;21.72;100.00;98957.53;5111865;28;20240;-56
2022/09/11 03:00:33;;;;;;;9.05;7.75;;;;;;;21.51;100.00;98926.78;5111392;28;20666;-53
2022/09/11 03:03:00;;;;;;;8.45;7.65;;;;;;;21.69;100.00;98963.06;5111228;28;20707;-54
2022/09/11 03:05:28;;;;;;;8.77;7.88;;;;;;;21.66;100.00;98954.59;5110869;28;20253;-53
2022/09/11 03:07:55;;;;;;;10.10;7.78;;;;;;;21.62;100.00;98961.06;5111334;28;20281;-57
2022/09/11 03:10:22;;;;;;;8.85;7.43;;;;;;;21.62;100.00;98967.19;5110829;28;20205;-56
2022/09/11 03:12:49;;;;;;;8.07;7.07;;;;;;;21.61;100.00;98960.22;5111225;28;20199;-56
2022/09/11 03:15:16;;;;;;;8.45;7.18;;;;;;;21.63;100.00;98963.59;5110961;28;20239;-54
2022/09/11 03:17:45;;;;;;;7.10;6.57;;;;;;;21.62;100.00;98967.19;5110952;28;20335;-55
2022/09/11 03:20:12;;;;;;;14.00;8.07;;;;;;;21.60;100.00;98963.00;5110820;28;20293;-54
2022/09/11 03:22:39;;;;;;;14.70;7.70;;;;;;;21.65;100.00;98960.81;5110776;28;20205;-54
2022/09/11 03:25:07;;;;;;;8.85;7.75;;;;;;;21.72;100.00;98967.25;5110558;28;20326;-54
2022/09/11 03:27:34;;;;;;;8.13;7.50;;;;;;;21.71;100.00;98968.22;5110881;28;20198;-54
2022/09/11 03:30:01;;;;;;;8.77;7.57;;;;;;;21.72;100.00;98968.09;5110751;28;20666;-57
2022/09/11 03:32:28;;;;;;;9.80;7.60;;;;;;;21.77;100.00;98969.53;5110239;28;20324;-53
2022/09/11 03:34:56;;;;;;;7.65;6.60;;;;;;;21.79;100.00;98972.84;5110463;28;20194;-54
2022/09/11 03:37:23;;;;;;;8.07;6.90;;;;;;;21.83;100.00;98976.94;5110439;28;20216;-53
2022/09/11 03:39:51;;;;;;;7.82;7.18;;;;;;;21.84;100.00;98970.69;5110609;28;20199;-57
2022/09/11 03:42:18;;;;;;;9.55;7.45;;;;;;;21.87;100.00;98967.78;5110812;28;20198;-57
2022/09/11 03:44:45;;;;;;;8.57;6.95;;;;;;;21.88;100.00;98969.47;5110794;28;20194;-57
2022/09/11 03:47:12;;;;;;;7.22;6.63;;;;;;;21.90;100.00;98968.34;5110404;28;20226;-54
2022/09/11 03:49:39;;;;;;;8.38;7.43;;;;;;;21.92;100.00;98981.44;5110289;28;21148;-54
2022/09/11 03:52:08;;;;;;;6.80;6.28;;;;;;;21.89;100.00;98973.78;5110148;28;20195;-53
2022/09/11 03:54:35;;;;;;;8.00;6.82;;;;;;;21.88;100.00;98987.97;5110408;28;20199;-54
2022/09/11 03:57:01;;;;;;;8.02;7.22;;;;;;;21.90;100.00;98983.38;5110111;28;20190;-54
2022/09/11 03:59:29;;;;;;;7.30;6.70;;;;;;;21.91;100.00;98979.75;5110202;28;20195;-57
2022/09/11 04:01:56;;;;;;;7.30;6.60;;;;;;;21.88;100.00;98994.09;5110012;28;20198;-55
2022/09/11 04:04:23;;;;;;;10.57;6.50;;;;;;;21.85;100.00;98994.34;5110065;28;20317;-57
2022/09/11 04:06:49;;;;;;;8.75;6.25;;;;;;;21.86;100.00;98982.81;5109436;28;20275;-57
2022/09/11 04:09:18;;;;;;;8.55;6.70;;;;;;;21.86;100.00;98998.66;5110411;28;20217;-55
2022/09/11 04:11:45;;;;;;;9.10;7.47;;;;;;;21.93;100.00;98996.34;5109802;28;20201;-54
2022/09/11 04:14:12;;;;;;;8.63;7.05;;;;;;;21.88;100.00;98995.91;5109871;28;20212;-53
2022/09/11 04:16:39;;;;;;;7.95;6.93;;;;;;;21.86;100.00;99000.47;5109249;28;20285;-53
2022/09/11 04:19:06;;;;;;;8.55;6.82;;;;;;;21.89;100.00;98989.66;5108186;28;20201;-52
2022/09/11 04:21:33;;;;;;;7.35;6.65;;;;;;;21.97;100.00;98995.13;5109015;28;20727;-54
2022/09/11 04:24:00;;;;;;;7.50;6.80;;;;;;;22.00;100.00;98997.53;5103639;28;20194;-53
2022/09/11 04:26:31;;;;;;;8.55;6.78;;;;;;;22.03;100.00;98994.63;5108400;28;20220;-53
2022/09/11 04:28:58;;;;;;;9.02;6.30;;;;;;;22.09;100.00;98983.56;5105855;28;20201;-53
2022/09/11 04:31:26;;;;;;;6.97;6.35;;;;;;;22.20;100.00;98998.50;5108575;28;20243;-55
2022/09/11 04:33:54;;;;;;;11.05;6.60;;;;;;;22.23;100.00;98999.09;5108038;28;20275;-52
2022/09/11 04:36:23;;;;;;;7.20;6.47;;;;;;;22.30;100.00;98988.81;5108501;28;20187;-53
2022/09/11 04:38:54;;;;;;;12.05;6.80;;;;;;;22.36;100.00;98994.41;5108674;28;20287;-52
2022/09/11 04:41:21;;;;;;;7.63;6.88;;;;;;;22.43;99.90;98992.09;5108958;28;20195;-53
2022/09/11 04:43:55;;;;;;;8.50;6.40;;;;;;;22.59;98.86;98983.66;5108969;28;20209;-53
2022/09/11 04:46:23;;;;;;;7.35;6.15;;;;;;;22.71;98.03;98987.88;5108610;28;20222;-55
2022/09/11 04:48:52;;;;;;;8.82;6.43;;;;;;;22.79;97.42;98990.75;5108907;28;20248;-56
2022/09/11 04:51:21;;;;;;;7.65;6.47;;;;;;;22.86;96.47;98996.34;5108837;28;20592;-57
2022/09/11 04:53:48;;;;;;;7.40;6.07;;;;;;;22.94;96.06;98991.19;5108866;28;20584;-55
2022/09/11 04:56:16;;;;;;;6.93;6.18;;;;;;;23.08;94.88;98996.97;5109198;28;20204;-54
2022/09/11 04:58:43;;;;;;;7.80;6.35;;;;;;;23.18;93.98;98991.69;5109269;28;20723;-53
2022/09/11 05:01:14;;;;;;;7.18;6.40;;;;;;;23.35;92.00;98992.84;5109357;28;20206;-53
2022/09/11 05:03:42;;;;;;;6.30;5.68;;;;;;;23.94;89.50;98998.00;5109213;28;20195;-56
2022/09/11 05:06:11;;;;;;;10.50;6.20;;;;;;;25.40;81.89;99002.66;5109440;28;20309;-56
2022/09/11 05:08:38;;;;;;;9.27;5.63;;;;;;;27.26;72.60;99005.78;5109420;28;20727;-53
2022/09/11 05:11:05;;;;;;;7.10;5.47;;;;;;;28.85;63.53;99006.13;5109432;28;20191;-54
2022/09/11 05:13:33;;;;;;;7.15;5.57;;;;;;;30.37;57.64;99019.66;5109400;28;20276;-53
2022/09/11 05:16:03;;;;;;;5.80;5.28;;;;;;;31.61;52.78;99022.38;5109269;28;20195;-53
2022/09/11 05:18:32;;;;;;;6.43;5.20;;;;;;;32.10;50.01;99022.44;5111109;28;20587;-53
2022/09/11 05:21:00;;;;;;;8.60;5.60;;;;;;;32.40;48.37;99024.97;5113196;28;20199;-53
2022/09/11 05:23:28;;;;;;;10.38;4.82;;;;;;;33.12;47.21;99027.28;5113151;28;20666;-53
2022/09/11 05:25:57;;;;;;;9.15;4.82;;;;;;;34.19;44.02;99027.38;5112510;28;20308;-53
2022/09/11 05:28:26;;;;;;;7.05;5.30;;;;;;;34.85;42.00;99030.03;5112995;28;20209;-54
2022/09/11 05:30:53;;;;;;;6.30;5.03;;;;;;;35.75;40.07;99028.19;5113076;28;20199;-54
2022/09/11 05:33:22;;;;;;;5.43;4.97;;;;;;;36.01;39.05;99027.97;5112929;28;20299;-54
2022/09/11 05:35:51;;;;;;;5.50;5.00;;;;;;;36.22;37.93;99013.31;5112939;28;20195;-54
2022/09/11 05:38:18;;;;;;;5.60;4.20;;;;;;;36.42;37.96;99021.22;5112654;28;20704;-54
2022/09/11 05:40:45;;;;;;;4.80;4.43;;;;;;;36.18;37.48;99022.88;5113076;28;20209;-54
2022/09/11 05:43:14;;;;;;;6.80;5.00;;;;;;;36.21;37.99;99023.28;5112773;28;20205;-53
2022/09/11 05:45:41;;;;;;;6.10;4.55;;;;;;;36.48;36.31;99026.56;5112559;28;20221;-54
2022/09/11 05:48:09;;;;;;;4.68;4.38;;;;;;;36.37;36.58;99032.69;5112455;28;20251;-55
2022/09/11 05:50:36;;;;;;;12.65;4.68;;;;;;;36.77;35.86;99032.34;5111725;28;20678;-55
2022/09/11 05:53:05;;;;;;;5.65;4.32;;;;;;;36.54;35.72;99024.84;5112146;28;20208;-58
2022/09/11 05:55:34;;;;;;;4.68;4.20;;;;;;;36.64;35.19;99026.00;5112004;28;20693;-56
2022/09/11 05:58:01;;;;;;;11.25;4.10;;;;;;;36.96;34.57;99028.56;5110364;28;20239;-58
2022/09/11 06:00:29;;;;;;;4.28;3.97;;;;;;;37.31;33.57;99018.81;5110756;28;20209;-57
2022/09/11 06:02:57;;;;;;;4.35;3.90;;;;;;;37.39;33.74;99028.47;5110936;28;20240;-57
2022/09/11 06:05:24;;;;;;;5.50;4.47;;;;;;;38.00;32.78;99033.66;5111894;28;20674;-56
2022/09/11 06:07:51;;;;;;;5.80;4.22;;;;;;;38.52;31.85;99033.81;5112378;28;20763;-57
2022/09/11 06:10:20;;;;;;;4.82;4.50;;;;;;;38.84;31.07;99037.81;5112176;28;20206;-57
2022/09/11 06:12:47;;;;;;;5.53;4.00;;;;;;;38.40;31.09;99041.13;5111983;28;20741;-57
2022/09/11 06:15:14;;;;;;;5.03;4.50;;;;;;;38.67;30.02;99041.53;5112206;28;20578;-57
2022/09/11 06:17:41;;;;;;;6.63;4.60;;;;;;;38.57;30.48;99031.28;5111702;28;20574;-55
2022/09/11 06:20:09;;;;;;;5.05;4.55;;;;;;;38.84;30.17;99050.56;5111811;28;20198;-56
2022/09/11 06:22:36;;;;;;;5.43;4.70;;;;;;;38.51;30.03;99048.44;5112114;28;20284;-56
2022/09/11 06:25:04;;;;;;;5.82;4.82;;;;;;;38.57;30.18;99052.16;5111680;28;20202;-56
2022/09/11 06:27:32;;;;;;;5.65;5.28;;;;;;;38.85;30.01;99042.19;5111825;28;20701;-56
2022/09/11 06:29:59;;;;;;;4.72;4.40;;;;;;;38.95;29.43;99052.44;5110641;28;20609;-57
2022/09/11 06:32:26;;;;;;;4.45;4.05;;;;;;;39.03;29.65;99048.56;5111508;28;20233;-56
2022/09/11 06:34:53;;;;;;;5.28;4.18;;;;;;;39.67;28.78;99049.31;5111556;28;20198;-57
2022/09/11 06:37:20;;;;;;;4.47;3.90;;;;;;;39.65;28.48;99041.41;5111535;28;20194;-55
2022/09/11 06:39:47;;;;;;;4.00;3.63;;;;;;;39.78;28.48;99046.53;5111296;28;20288;-55
2022/09/11 06:42:14;;;;;;;5.10;4.70;;;;;;;39.73;28.93;99046.44;5111398;28;20194;-55
2022/09/11 06:44:42;;;;;;;4.75;4.45;;;;;;;40.04;28.32;99053.28;5111238;28;20277;-55
2022/09/11 06:47:09;;;;;;;7.40;3.63;;;;;;;40.31;27.43;99058.88;5111068;28;20224;-55
2022/09/11 06:49:36;;;;;;;3.60;3.38;;;;;;;40.31;27.42;99052.63;5111402;28;20200;-55
2022/09/11 06:52:03;;;;;;;5.32;4.30;;;;;;;41.02;26.77;99050.94;5111105;28;20198;-55
2022/09/11 06:54:30;;;;;;;3.63;3.30;;;;;;;41.15;25.96;99058.78;5111377;28;20565;-54
2022/09/11 06:56:57;;;;;;;5.82;3.40;;;;;;;40.95;26.10;99054.69;5111132;28;20193;-56
2022/09/11 06:59:24;;;;;;;3.60;3.30;;;;;;;41.01;25.94;99061.00;5111055;28;20204;-56
2022/09/11 07:01:53;;;;;;;3.75;3.55;;;;;;;40.95;26.70;99051.97;5111065;28;20645;-55
2022/09/11 07:04:22;;;;;;;3.83;3.53;;;;;;;41.52;25.91;99050.75;5111458;27;20221;-54
2022/09/11 07:06:49;;;;;;;5.05;3.38;;;;;;;40.51;26.46;99061.13;5111010;28;20229;-54
2022/09/11 07:09:16;;;;;;;4.53;3.35;;;;;;;40.69;26.82;99062.72;5110994;28;20696;-55
2022/09/11 07:11:45;;;;;;;5.93;3.30;;;;;;;40.92;26.21;99066.09;5110904;28;20704;-55
2022/09/11 07:14:12;;;;;;;3.92;3.63;;;;;;;40.92;26.36;99059.81;5110722;28;20692;-55
2022/09/11 07:16:39;;;;;;;3.60;3.10;;;;;;;41.10;25.26;99070.38;5110687;28;20194;-57
2022/09/11 07:19:08;;;;;;;4.57;4.28;;;;;;;41.29;25.24;99066.31;5110882;28;20194;-56
2022/09/11 07:21:36;;;;;;;4.40;3.22;;;;;;;41.39;25.05;99070.22;5110815;28;20224;-58
2022/09/11 07:24:03;;;;;;;3.67;3.22;;;;;;;42.04;23.99;99070.13;5110586;28;20202;-57
2022/09/11 07:26:31;;;;;;;6.45;3.20;;;;;;;42.62;23.25;99071.97;5110553;28;20194;-57
2022/09/11 07:28:58;;;;;;;3.35;3.15;;;;;;;42.87;23.05;99079.53;5110631;28;20244;-57
2022/09/11 07:31:28;;;;;;;4.18;3.22;;;;;;;42.97;22.74;99082.28;5110695;28;20360;-57
2022/09/11 07:33:55;;;;;;;2.95;2.83;;;;;;;42.91;22.55;99075.16;5110187;28;20329;-57
2022/09/11 07:36:26;;;;;;;2.92;2.83;;;;;;;43.37;22.45;99072.66;5110404;27;20251;-58
2022/09/11 07:38:53;;;;;;;5.47;2.95;;;;;;;43.96;21.72;99080.44;5110243;27;20291;-57
2022/09/11 07:41:22;;;;;;;7.13;2.95;;;;;;;44.48;21.47;99066.53;5110050;28;20206;-59
2022/09/11 07:43:53;;;;;;;2.95;2.63;;;;;;;44.88;20.67;99087.56;5110223;28;20288;-58
2022/09/11 07:46:20;;;;;;;2.63;2.45;;;;;;;44.62;20.93;99084.03;5110388;28;20586;-58
2022/09/11 07:48:47;;;;;;;3.15;2.95;;;;;;;45.06;20.79;99081.47;5110526;28;20232;-58
2022/09/11 07:51:16;;;;;;;2.88;2.60;;;;;;;45.43;20.33;99089.28;5110093;28;20200;-57
2022/09/11 07:53:46;;;;;;;2.95;2.80;;;;;;;44.77;20.59;99086.78;5109961;28;20198;-57
2022/09/11 07:56:14;;;;;;;3.22;2.90;;;;;;;44.92;20.74;99087.84;5110426;28;20589;-57
2022/09/11 07:58:43;;;;;;;12.27;3.45;;;;;;;45.10;20.29;99087.22;5110254;28;20218;-57
2022/09/11 08:01:13;;;;;;;3.53;3.33;;;;;;;44.46;20.90;99085.16;5110334;28;20193;-57
2022/09/11 08:03:41;;;;;;;3.15;3.00;;;;;;;44.33;21.13;99059.16;5110114;28;20301;-57
2022/09/11 08:06:12;;;;;;;5.22;3.50;;;;;;;44.50;21.02;99078.84;5109928;28;20194;-57
2022/09/11 08:08:39;;;;;;;3.63;2.95;;;;;;;45.16;21.10;99084.19;5109997;28;20601;-57
2022/09/11 08:11:10;;;;;;;3.50;3.30;;;;;;;45.41;20.96;99093.41;5109984;28;20649;-57
2022/09/11 08:13:38;;;;;;;3.65;3.10;;;;;;;46.09;20.34;99086.16;5110016;28;20641;-57
2022/09/11 08:16:06;;;;;;;3.72;3.38;;;;;;;46.42;19.90;99092.75;5109775;28;20201;-58
2022/09/11 08:18:34;;;;;;;4.00;3.75;;;;;;;46.76;19.48;99084.47;5109991;28;20579;-58
2022/09/11 08:21:03;;;;;;;6.00;5.47;;;;;;;46.41;19.84;99082.06;5109479;28;20280;-58
2022/09/11 08:23:31;;;;;;;7.50;4.53;;;;;;;45.03;20.96;99070.25;5109956;28;20580;-57
2022/09/11 08:26:05;;;;;;;3.45;3.20;;;;;;;44.10;21.40;99065.19;5109706;28;20202;-57
2022/09/11 08:28:34;;;;;;;3.50;3.30;;;;;;;43.35;22.49;99058.41;5109775;28;20222;-57
2022/09/11 08:31:01;;;;;;;4.35;3.88;;;;;;;41.73;24.23;99043.66;5109480;28;20221;-57
2022/09/11 08:33:28;;;;;;;5.18;3.38;;;;;;;39.98;25.80;99042.53;5109337;28;20232;-58
2022/09/11 08:35:57;;;;;;;10.00;3.75;;;;;;;37.99;28.34;99036.59;5109553;28;20204;-57
2022/09/11 08:38:24;;;;;;;3.22;3.03;;;;;;;36.26;29.88;99007.22;5109667;28;20198;-57
2022/09/11 08:40:51;;;;;;;4.70;4.45;;;;;;;35.46;31.80;99018.78;5109590;28;20198;-57
2022/09/11 08:43:23;;;;;;;4.90;4.50;;;;;;;34.62;32.95;99016.16;5109628;28;20217;-56
2022/09/11 08:45:58;;;;;;;4.40;4.07;;;;;;;34.32;33.74;99016.59;5109546;28;20686;-56
2022/09/11 08:48:32;;;;;;;4.10;3.80;;;;;;;34.45;33.86;99010.34;5109378;28;20217;-56
2022/09/11 08:51:00;;;;;;;5.20;4.70;;;;;;;34.44;33.94;99003.31;5109559;28;20198;-56
2022/09/11 08:53:30;;;;;;;4.28;3.95;;;;;;;34.58;34.19;99004.94;5111448;28;20201;-56
2022/09/11 08:56:06;;;;;;;5.20;4.85;;;;;;;34.65;34.09;98994.16;5113448;28;20198;-57
2022/09/11 08:58:43;;;;;;;4.20;3.80;;;;;;;34.23;33.86;99002.47;5113618;28;20224;-57
2022/09/11 09:01:23;;;;;;;5.47;4.78;;;;;;;33.66;35.15;99000.34;5113496;28;20673;-57
2022/09/11 09:04:10;;;;;;;4.22;3.70;;;;;;;33.30;36.01;98991.78;5113192;28;20217;-56
2022/09/11 09:06:51;;;;;;;4.63;4.22;;;;;;;33.11;35.80;98980.75;5113155;28;20230;-57
2022/09/11 09:09:30;;;;;;;4.30;3.90;;;;;;;32.72;36.52;98984.09;5113142;28;20202;-55
2022/09/11 09:12:05;;;;;;;5.75;5.43;;;;;;;32.77;36.79;98980.78;5113071;28;20281;-55
2022/09/11 09:14:56;;;;;;;5.45;5.05;;;;;;;32.55;36.84;98968.44;5113269;28;20224;-57
2022/09/11 09:17:30;;;;;;;5.40;5.00;;;;;;;32.97;36.59;98967.44;5109667;28;20202;-56
2022/09/11 09:20:01;;;;;;;6.95;4.50;;;;;;;33.26;36.44;98972.56;5112921;28;20195;-56
2022/09/11 09:22:38;;;;;;;5.30;4.60;;;;;;;33.50;35.35;98974.69;5113180;28;20586;-56
2022/09/11 09:25:11;;;;;;;5.95;5.50;;;;;;;33.85;34.88;98969.97;5112877;28;20221;-56
2022/09/11 09:27:44;;;;;;;4.35;4.05;;;;;;;34.09;34.62;98973.88;5112942;28;20606;-56
2022/09/11 09:30:16;;;;;;;5.68;5.20;;;;;;;34.32;34.06;98961.88;5113221;28;20198;-56
2022/09/11 09:32:51;;;;;;;5.25;4.88;;;;;;;34.45;33.69;98965.38;5112931;28;20661;-56
2022/09/11 09:35:23;;;;;;;5.65;5.13;;;;;;;34.28;33.90;98953.41;5112898;28;20208;-57
2022/09/11 09:37:50;;;;;;;4.70;4.35;;;;;;;35.29;32.28;98962.63;5112463;28;20701;-56
2022/09/11 09:40:19;;;;;;;8.05;7.40;;;;;;;37.29;29.21;98972.19;5112473;28;20232;-56
2022/09/11 09:43:28;;;;;;;6.93;6.32;;;;;;;38.75;26.80;98954.34;5112594;28;20293;-56
2022/09/11 09:46:10;;;;;;;4.85;4.45;;;;;;;38.75;26.67;98962.47;5112505;28;20224;-57
2022/09/11 09:48:39;;;;;;;6.53;4.25;;;;;;;37.02;28.75;98963.56;5112308;28;20701;-56
2022/09/11 09:51:11;;;;;;;6.03;4.68;;;;;;;35.50;30.86;98953.34;5112363;28;20202;-53
2022/09/11 09:53:41;;;;;;;5.32;4.38;;;;;;;34.75;32.03;98957.66;5112577;28;20642;-54
2022/09/11 09:56:12;;;;;;;4.88;4.38;;;;;;;33.89;33.37;98946.97;5112489;28;20595;-56
2022/09/11 09:58:45;;;;;;;5.22;4.85;;;;;;;33.70;33.42;98926.25;5112317;28;20585;-56
2022/09/11 10:01:43;;;;;;;8.18;4.35;;;;;;;33.56;34.12;98935.34;5112306;28;20234;-56
2022/09/11 10:04:15;;;;;;;7.22;4.97;;;;;;;33.31;34.99;98932.41;5112509;28;20194;-56
2022/09/11 10:06:44;;;;;;;6.07;4.95;;;;;;;33.12;35.29;98939.38;5112209;28;20683;-56
2022/09/11 10:09:24;;;;;;;5.20;4.80;;;;;;;32.71;35.33;98922.47;5112024;28;20221;-56
2022/09/11 10:12:00;;;;;;;6.88;6.28;;;;;;;32.52;35.13;98926.69;5111954;28;20202;-56
2022/09/11 10:14:31;;;;;;;5.03;4.63;;;;;;;32.27;35.57;98921.00;5112025;28;20287;-56
2022/09/11 10:16:59;;;;;;;4.72;4.53;;;;;;;32.28;35.48;98919.94;5112040;28;20198;-56
2022/09/11 10:19:40;;;;;;;5.90;4.35;;;;;;;32.37;35.42;98912.56;5111989;28;20201;-56
2022/09/11 10:22:28;;;;;;;6.70;5.57;;;;;;;32.64;35.26;98917.03;5111743;28;20201;-56
2022/09/11 10:25:11;;;;;;;6.72;6.32;;;;;;;32.62;35.67;98920.97;5111737;28;20194;-57
2022/09/11 10:27:50;;;;;;;7.20;6.25;;;;;;;32.68;35.82;98914.78;5111713;28;20241;-56
2022/09/11 10:30:36;;;;;;;5.72;5.22;;;;;;;32.58;36.06;98911.63;5111714;28;20237;-56
2022/09/11 10:33:07;;;;;;;7.00;5.63;;;;;;;32.35;36.47;98909.25;5111619;28;20236;-56
2022/09/11 10:35:36;;;;;;;6.47;5.78;;;;;;;32.53;36.33;98916.75;5111551;28;20201;-55
2022/09/11 10:38:16;;;;;;;5.22;4.82;;;;;;;32.59;35.91;98913.28;5111512;28;20385;-55
2022/09/11 10:40:58;;;;;;;10.30;9.60;;;;;;;32.57;35.67;98899.22;5111535;28;20198;-56
2022/09/11 10:43:33;;;;;;;4.88;4.05;;;;;;;32.40;35.54;98896.88;5111458;28;20272;-56
2022/09/11 10:46:06;;;;;;;5.25;3.95;;;;;;;32.44;33.49;98891.94;5111372;28;20202;-55
2022/09/11 10:48:41;;;;;;;4.00;3.65;;;;;;;32.43;32.88;98901.00;5111260;28;20237;-55
2022/09/11 10:51:12;;;;;;;11.35;4.95;;;;;;;32.51;32.95;98891.97;5111106;28;20252;-55
2022/09/11 10:53:53;;;;;;;6.32;4.57;;;;;;;32.47;33.26;98896.91;5111348;28;20225;-55
2022/09/11 10:56:21;;;;;;;10.88;8.57;;;;;;;32.13;33.33;98892.34;5111284;28;20670;-56
2022/09/11 10:58:52;;;;;;;4.40;3.80;;;;;;;31.91;33.53;98874.66;5111130;28;20203;-56
2022/09/11 11:01:19;;;;;;;4.80;4.50;;;;;;;31.94;33.16;98874.28;5111113;28;20201;-57
2022/09/11 11:03:47;;;;;;;4.70;3.60;;;;;;;31.80;33.41;98877.88;5111058;28;20285;-56
2022/09/11 11:06:35;;;;;;;5.07;4.15;;;;;;;31.68;33.43;98886.47;5111392;28;20194;-57
2022/09/11 11:09:14;;;;;;;4.85;4.22;;;;;;;31.74;33.41;98891.03;5110852;28;20280;-55
2022/09/11 11:11:55;;;;;;;4.97;4.68;;;;;;;31.81;33.12;98884.91;5110807;28;20199;-56
2022/09/11 11:14:48;;;;;;;2.85;2.65;;;;;;;31.72;32.27;98893.09;5110906;28;20250;-56
2022/09/11 11:17:24;;;;;;;3.20;2.97;;;;;;;31.77;31.62;98883.63;5110428;28;20205;-56
2022/09/11 11:20:26;;;;;;;3.03;2.83;;;;;;;31.73;31.80;98877.81;5110655;28;20190;-56
2022/09/11 11:23:30;;;;;;;4.72;3.33;;;;;;;31.69;32.31;98880.06;5110746;28;20202;-55
2022/09/11 11:26:09;;;;;;;3.55;3.30;;;;;;;31.78;32.00;98872.69;5110488;28;20201;-55
2022/09/11 11:28:59;;;;;;;4.22;3.78;;;;;;;31.58;32.54;98869.00;5110503;28;20240;-55
2022/09/11 11:31:37;;;;;;;3.20;3.00;;;;;;;31.57;32.56;98862.81;5110418;28;20195;-57
2022/09/11 11:34:33;;;;;;;4.90;3.22;;;;;;;31.60;32.33;98872.34;5110359;28;20229;-56
2022/09/11 11:37:06;;;;;;;3.95;3.60;;;;;;;31.51;32.20;98873.47;5110250;28;20198;-56
2022/09/11 11:39:42;;;;;;;4.00;3.80;;;;;;;31.55;32.39;98864.84;5110522;28;20277;-56
2022/09/11 11:42:15;;;;;;;3.00;2.80;;;;;;;31.58;32.76;98869.00;5110341;28;20201;-56
2022/09/11 11:44:48;;;;;;;4.45;3.50;;;;;;;31.51;32.25;98863.56;5110362;28;20680;-56
2022/09/11 11:47:18;;;;;;;4.43;3.20;;;;;;;31.36;31.77;98850.28;5110154;28;20207;-56
2022/09/11 11:49:56;;;;;;;3.10;2.90;;;;;;;31.32;32.32;98848.97;5110191;28;20311;-56